createdAt,value
2018-05-12T00:01:04.058Z,99.90
2018-05-12T00:03:32.196Z,99.90
2018-05-12T00:06:00.372Z,99.90
2018-05-12T00:08:28.520Z,99.90
2018-05-12T00:10:56.685Z,99.90
2018-05-12T00:13:24.827Z,99.90
2018-05-12T00:15:53.001Z,99.90
2018-05-12T00:18:21.143Z,99.90
2018-05-12T00:20:49.303Z,99.90
2018-05-12T00:23:17.452Z,99.90
2018-05-12T00:25:45.631Z,99.90
2018-05-12T00:28:13.773Z,99.90
2018-05-12T00:30:41.945Z,99.90
2018-05-12T00:33:10.086Z,99.90
2018-05-12T00:35:38.252Z,99.90
2018-05-12T00:38:06.400Z,99.90
2018-05-12T00:40:34.573Z,99.90
2018-05-12T00:43:02.796Z,99.90
2018-05-12T00:45:30.916Z,99.90
2018-05-12T00:47:59.070Z,99.90
2018-05-12T00:50:27.240Z,99.90
2018-05-12T00:52:55.387Z,99.90
2018-05-12T00:55:23.550Z,99.90
2018-05-12T00:57:51.692Z,99.90
2018-05-12T01:00:19.864Z,99.90
2018-05-12T01:02:48.004Z,99.90
2018-05-12T01:05:16.959Z,99.90
2018-05-12T01:07:45.108Z,99.90
2018-05-12T01:10:13.285Z,99.90
2018-05-12T01:12:41.438Z,99.90
2018-05-12T01:15:09.609Z,99.90
2018-05-12T01:17:38.529Z,99.90
2018-05-12T01:20:06.705Z,99.90
2018-05-12T01:22:34.847Z,99.90
2018-05-12T01:25:03.025Z,99.90
2018-05-12T01:27:31.173Z,99.90
2018-05-12T01:29:59.347Z,99.90
2018-05-12T01:32:27.489Z,99.90
2018-05-12T01:34:55.657Z,99.90
2018-05-12T01:37:23.801Z,99.90
2018-05-12T01:39:51.981Z,99.90
2018-05-12T01:42:20.129Z,99.90
2018-05-12T01:44:48.300Z,99.90
2018-05-12T01:47:17.212Z,99.90
2018-05-12T01:49:45.387Z,99.90
2018-05-12T01:52:13.531Z,99.90
2018-05-12T01:54:41.704Z,99.90
2018-05-12T01:57:09.854Z,99.90
2018-05-12T01:59:38.020Z,99.90
2018-05-12T02:02:06.168Z,99.90
2018-05-12T02:04:34.316Z,99.90
2018-05-12T02:07:02.501Z,99.90
2018-05-12T02:09:30.653Z,99.90
2018-05-12T02:11:58.821Z,99.90
2018-05-12T02:14:26.969Z,99.90
2018-05-12T02:16:55.155Z,99.90
2018-05-12T02:19:23.305Z,99.90
2018-05-12T02:21:51.472Z,99.90
2018-05-12T02:24:19.616Z,99.90
2018-05-12T02:26:47.794Z,99.90
2018-05-12T02:29:15.940Z,99.90
2018-05-12T02:31:44.116Z,99.90
2018-05-12T02:34:12.270Z,99.90
2018-05-12T02:36:40.441Z,99.90
2018-05-12T02:39:08.591Z,99.90
2018-05-12T02:41:36.765Z,99.90
2018-05-12T02:44:04.908Z,99.90
2018-05-12T02:46:33.079Z,99.90
2018-05-12T02:49:01.222Z,99.90
2018-05-12T02:51:29.403Z,99.90
2018-05-12T02:53:57.562Z,99.90
2018-05-12T02:56:25.740Z,99.90
2018-05-12T02:58:53.885Z,99.90
2018-05-12T03:01:22.059Z,99.90
2018-05-12T03:03:50.205Z,99.90
2018-05-12T03:06:18.379Z,99.90
2018-05-12T03:08:46.525Z,99.90
2018-05-12T03:11:14.704Z,99.90
2018-05-12T03:13:42.861Z,99.90
2018-05-12T03:16:11.029Z,99.90
2018-05-12T03:18:39.181Z,99.90
2018-05-12T03:21:07.355Z,99.90
2018-05-12T03:23:35.513Z,99.90
2018-05-12T03:26:03.683Z,99.90
2018-05-12T03:28:31.830Z,99.90
2018-05-12T03:31:00.003Z,99.90
2018-05-12T03:33:28.920Z,99.90
2018-05-12T03:35:57.093Z,99.90
2018-05-12T03:38:25.246Z,99.90
2018-05-12T03:40:53.421Z,99.90
2018-05-12T03:43:21.574Z,99.90
2018-05-12T03:45:50.512Z,99.90
2018-05-12T03:48:18.666Z,99.90
2018-05-12T03:50:46.842Z,99.90
2018-05-12T03:53:14.989Z,99.90
2018-05-12T03:55:43.160Z,99.90
2018-05-12T03:58:12.077Z,99.90
2018-05-12T04:00:40.258Z,99.90
2018-05-12T04:03:08.407Z,99.90
2018-05-12T04:05:48.400Z,99.90
2018-05-12T04:08:28.311Z,99.90
2018-05-12T04:11:08.156Z,99.90
2018-05-12T04:13:37.100Z,99.90
2018-05-12T04:16:05.245Z,99.90
2018-05-12T04:18:33.412Z,99.90
2018-05-12T04:21:01.564Z,99.90
2018-05-12T04:23:29.764Z,99.90
2018-05-12T04:25:57.913Z,99.90
2018-05-12T04:28:26.084Z,99.90
2018-05-12T04:30:54.233Z,99.90
2018-05-12T04:33:22.408Z,99.90
2018-05-12T04:35:50.561Z,99.90
2018-05-12T04:38:18.731Z,99.90
2018-05-12T04:40:46.878Z,99.90
2018-05-12T04:43:15.084Z,99.90
2018-05-12T04:45:43.229Z,99.90
2018-05-12T04:48:11.411Z,99.90
2018-05-12T04:50:39.576Z,99.90
2018-05-12T04:53:07.749Z,99.90
2018-05-12T04:55:35.901Z,99.90
2018-05-12T04:58:04.843Z,99.90
2018-05-12T05:00:32.999Z,99.90
2018-05-12T05:03:01.176Z,99.90
2018-05-12T05:05:29.328Z,99.90
2018-05-12T05:07:57.511Z,99.90
2018-05-12T05:10:25.675Z,99.90
2018-05-12T05:12:53.848Z,99.90
2018-05-12T05:15:22.039Z,99.90
2018-05-12T05:17:50.210Z,99.90
2018-05-12T05:20:18.373Z,99.90
2018-05-12T05:22:46.556Z,99.90
2018-05-12T05:25:16.012Z,99.90
2018-05-12T05:27:44.190Z,99.90
2018-05-12T05:30:12.340Z,99.90
2018-05-12T05:32:40.525Z,99.90
2018-05-12T05:35:08.773Z,99.90
2018-05-12T05:37:36.884Z,99.90
2018-05-12T05:40:05.040Z,99.90
2018-05-12T05:42:33.218Z,99.90
2018-05-12T05:45:01.372Z,99.90
2018-05-12T05:47:29.544Z,99.90
2018-05-12T05:49:57.691Z,99.90
2018-05-12T05:52:25.871Z,99.90
2018-05-12T05:54:54.020Z,99.90
2018-05-12T05:57:22.234Z,99.90
2018-05-12T05:59:50.392Z,99.90
2018-05-12T06:02:18.564Z,99.90
2018-05-12T06:04:47.652Z,99.90
2018-05-12T06:07:15.890Z,99.90
2018-05-12T06:09:44.014Z,99.90
2018-05-12T06:12:12.501Z,99.90
2018-05-12T06:14:40.660Z,99.90
2018-05-12T06:17:08.816Z,99.90
2018-05-12T06:19:37.002Z,99.90
2018-05-12T06:22:05.152Z,99.90
2018-05-12T06:24:34.096Z,99.90
2018-05-12T06:27:02.820Z,99.90
2018-05-12T06:29:31.043Z,99.90
2018-05-12T06:31:59.220Z,99.90
2018-05-12T06:34:27.392Z,99.90
2018-05-12T06:36:55.548Z,99.90
2018-05-12T06:39:23.724Z,99.90
2018-05-12T06:41:51.875Z,99.90
2018-05-12T06:44:20.836Z,99.90
2018-05-12T06:46:50.469Z,99.90
2018-05-12T06:49:19.725Z,99.90
2018-05-12T06:51:47.914Z,99.90
2018-05-12T06:54:16.112Z,99.90
2018-05-12T06:56:44.308Z,99.90
2018-05-12T06:59:13.270Z,99.90
2018-05-12T07:01:41.432Z,99.90
2018-05-12T07:04:09.645Z,99.90
2018-05-12T07:06:37.830Z,99.90
2018-05-12T07:09:06.810Z,99.90
2018-05-12T07:11:35.766Z,99.90
2018-05-12T07:14:04.736Z,99.90
2018-05-12T07:16:32.957Z,99.90
2018-05-12T07:19:01.157Z,99.90
2018-05-12T07:21:30.090Z,99.90
2018-05-12T07:23:58.367Z,99.90
2018-05-12T07:26:26.528Z,99.90
2018-05-12T07:28:54.747Z,99.90
2018-05-12T07:31:22.923Z,99.90
2018-05-12T07:33:51.175Z,99.90
2018-05-12T07:36:21.350Z,99.90
2018-05-12T07:38:49.559Z,99.90
2018-05-12T07:41:17.721Z,99.90
2018-05-12T07:43:45.926Z,99.90
2018-05-12T07:46:14.114Z,99.90
2018-05-12T07:48:42.323Z,99.90
2018-05-12T07:51:10.534Z,99.90
2018-05-12T07:53:39.001Z,99.90
2018-05-12T07:56:07.172Z,99.90
2018-05-12T07:58:35.363Z,99.90
2018-05-12T08:01:03.603Z,99.90
2018-05-12T08:03:31.906Z,99.90
2018-05-12T08:06:00.025Z,99.90
2018-05-12T08:08:29.034Z,99.90
2018-05-12T08:10:57.187Z,99.90
2018-05-12T08:13:25.372Z,99.90
2018-05-12T08:15:54.241Z,99.90
2018-05-12T08:18:22.434Z,99.90
2018-05-12T08:20:50.597Z,99.90
2018-05-12T08:23:18.777Z,99.90
2018-05-12T08:25:47.188Z,99.90
2018-05-12T08:28:15.388Z,99.90
2018-05-12T08:30:43.644Z,99.90
2018-05-12T08:33:11.879Z,99.90
2018-05-12T08:35:40.132Z,99.90
2018-05-12T08:38:08.311Z,99.90
2018-05-12T08:40:36.569Z,99.90
2018-05-12T08:43:04.742Z,99.90
2018-05-12T08:45:32.936Z,99.90
2018-05-12T08:48:01.131Z,99.90
2018-05-12T08:50:29.317Z,99.90
2018-05-12T08:52:57.508Z,99.90
2018-05-12T08:55:25.789Z,99.90
2018-05-12T08:57:54.020Z,99.90
2018-05-12T09:00:22.205Z,99.90
2018-05-12T09:02:50.361Z,99.90
2018-05-12T09:05:18.549Z,99.90
2018-05-12T09:07:46.711Z,99.90
2018-05-12T09:10:14.895Z,99.90
2018-05-12T09:12:43.060Z,99.90
2018-05-12T09:15:11.244Z,99.90
2018-05-12T09:17:39.408Z,99.90
2018-05-12T09:20:07.588Z,99.90
2018-05-12T09:22:35.756Z,99.90
2018-05-12T09:25:03.939Z,99.90
2018-05-12T09:27:32.093Z,99.90
2018-05-12T09:30:00.287Z,99.90
2018-05-12T09:32:28.451Z,99.90
2018-05-12T09:34:56.639Z,99.90
2018-05-12T09:37:24.802Z,99.90
2018-05-12T09:39:52.990Z,99.90
2018-05-12T09:42:21.174Z,99.90
2018-05-12T09:44:49.376Z,99.90
2018-05-12T09:47:17.542Z,99.90
2018-05-12T09:49:45.728Z,99.90
2018-05-12T09:52:13.887Z,99.90
2018-05-12T09:54:42.963Z,99.90
2018-05-12T09:57:11.880Z,99.90
2018-05-12T09:59:40.070Z,99.90
2018-05-12T10:02:09.045Z,99.90
2018-05-12T10:04:37.249Z,99.90
2018-05-12T10:07:05.405Z,99.90
2018-05-12T10:09:33.609Z,99.90
2018-05-12T10:12:01.783Z,99.90
2018-05-12T10:14:30.426Z,99.90
2018-05-12T10:16:58.589Z,99.90
2018-05-12T10:19:27.604Z,99.90
2018-05-12T10:21:55.742Z,99.90
2018-05-12T10:24:23.962Z,99.90
2018-05-12T10:26:52.118Z,99.90
2018-05-12T10:29:20.309Z,99.90
2018-05-12T10:31:48.470Z,99.90
2018-05-12T10:34:16.655Z,99.90
2018-05-12T10:36:44.812Z,99.90
2018-05-12T10:39:12.992Z,99.90
2018-05-12T10:41:41.161Z,99.90
2018-05-12T10:44:09.357Z,99.90
2018-05-12T10:46:37.536Z,99.90
2018-05-12T10:49:05.726Z,99.90
2018-05-12T10:51:33.896Z,99.90
2018-05-12T10:54:02.080Z,99.90
2018-05-12T10:56:30.244Z,99.90
2018-05-12T10:58:58.463Z,99.90
2018-05-12T11:01:26.624Z,99.90
2018-05-12T11:03:54.809Z,99.90
2018-05-12T11:06:23.026Z,99.90
2018-05-12T11:08:51.185Z,99.90
2018-05-12T11:11:19.381Z,99.90
2018-05-12T11:13:47.544Z,99.90
2018-05-12T11:16:15.740Z,99.90
2018-05-12T11:18:43.900Z,99.90
2018-05-12T11:21:12.089Z,99.90
2018-05-12T11:23:40.252Z,99.90
2018-05-12T11:26:08.445Z,99.90
2018-05-12T11:28:37.350Z,99.90
2018-05-12T11:31:05.940Z,99.90
2018-05-12T11:33:34.172Z,99.90
2018-05-12T11:36:02.356Z,99.90
2018-05-12T11:38:30.512Z,99.90
2018-05-12T11:40:58.695Z,99.90
2018-05-12T11:43:26.860Z,99.90
2018-05-12T11:45:55.045Z,99.90
2018-05-12T11:48:23.203Z,99.90
2018-05-12T11:50:51.398Z,99.90
2018-05-12T11:53:19.556Z,99.90
2018-05-12T11:55:47.757Z,99.90
2018-05-12T11:58:15.966Z,99.90
2018-05-12T12:00:44.129Z,99.90
2018-05-12T12:03:13.059Z,99.90
2018-05-12T12:05:41.245Z,99.90
2018-05-12T12:08:09.428Z,99.90
2018-05-12T12:10:38.386Z,99.90
2018-05-12T12:13:06.542Z,99.90
2018-05-12T12:15:34.731Z,99.90
2018-05-12T12:18:02.893Z,99.90
2018-05-12T12:20:31.112Z,99.90
2018-05-12T12:22:59.270Z,99.90
2018-05-12T12:25:27.454Z,99.90
2018-05-12T12:27:55.960Z,99.90
2018-05-12T12:30:24.155Z,99.90
2018-05-12T12:32:52.321Z,99.90
2018-05-12T12:35:20.481Z,99.90
2018-05-12T12:37:48.665Z,99.90
2018-05-12T12:40:16.898Z,99.90
2018-05-12T12:42:45.081Z,99.90
2018-05-12T12:45:13.253Z,99.90
2018-05-12T12:47:41.444Z,99.90
2018-05-12T12:50:09.608Z,99.90
2018-05-12T12:52:37.792Z,99.90
2018-05-12T12:55:05.954Z,99.90
2018-05-12T12:57:34.140Z,99.90
2018-05-12T13:00:02.304Z,99.90
2018-05-12T13:02:30.541Z,99.90
2018-05-12T13:04:59.468Z,99.90
2018-05-12T13:07:27.650Z,99.90
2018-05-12T13:09:55.841Z,99.90
2018-05-12T13:12:24.031Z,99.90
2018-05-12T13:14:52.184Z,99.90
2018-05-12T13:17:20.957Z,99.90
2018-05-12T13:19:49.904Z,99.90
2018-05-12T13:22:18.097Z,99.90
2018-05-12T13:24:46.259Z,99.90
2018-05-12T13:27:15.208Z,99.90
2018-05-12T13:29:43.369Z,99.90
2018-05-12T13:32:11.552Z,99.90
2018-05-12T13:34:39.716Z,99.90
2018-05-12T13:37:07.914Z,99.90
2018-05-12T13:39:36.076Z,99.90
2018-05-12T13:42:05.045Z,99.90
2018-05-12T13:44:34.425Z,99.90
2018-05-12T13:47:02.609Z,99.90
2018-05-12T13:49:30.769Z,99.70
2018-05-12T13:51:59.687Z,99.90
2018-05-12T13:54:27.852Z,99.90
2018-05-12T13:56:56.107Z,99.90
2018-05-12T13:59:24.244Z,99.90
2018-05-12T14:01:52.428Z,99.90
2018-05-12T14:04:20.588Z,99.90
2018-05-12T14:06:48.776Z,99.90
2018-05-12T14:09:18.033Z,99.90
2018-05-12T14:11:46.217Z,99.90
2018-05-12T14:14:14.382Z,99.90
2018-05-12T14:16:42.564Z,99.90
2018-05-12T14:19:10.733Z,99.90
2018-05-12T14:21:38.923Z,99.90
2018-05-12T14:24:07.096Z,99.90
2018-05-12T14:26:35.280Z,99.90
2018-05-12T14:29:03.781Z,99.90
2018-05-12T14:31:32.164Z,99.90
2018-05-12T14:34:00.316Z,99.90
2018-05-12T14:36:28.517Z,99.90
2018-05-12T14:38:56.672Z,99.90
2018-05-12T14:41:25.553Z,99.90
2018-05-12T14:43:53.742Z,99.90
2018-05-12T14:46:21.904Z,99.70
2018-05-12T14:48:50.080Z,99.90
2018-05-12T14:51:19.878Z,99.90
2018-05-12T14:53:48.393Z,99.90
2018-05-12T14:56:16.560Z,99.50
2018-05-12T14:58:44.742Z,99.20
2018-05-12T15:01:13.749Z,99.80
2018-05-12T15:03:41.932Z,99.60
2018-05-12T15:06:10.096Z,99.90
2018-05-12T15:08:39.046Z,99.90
2018-05-12T15:11:07.752Z,99.90
2018-05-12T15:13:36.576Z,99.90
2018-05-12T15:16:04.736Z,99.90
2018-05-12T15:18:34.472Z,99.90
2018-05-12T15:21:02.637Z,99.90
2018-05-12T15:23:30.814Z,99.90
2018-05-12T15:25:59.808Z,99.50
2018-05-12T15:28:28.019Z,99.10
2018-05-12T15:30:56.174Z,98.60
2018-05-12T15:33:25.240Z,98.50
2018-05-12T15:35:54.033Z,98.30
2018-05-12T15:38:22.813Z,98.50
2018-05-12T15:40:50.969Z,99.10
2018-05-12T15:43:19.149Z,98.30
2018-05-12T15:45:48.065Z,99.00
2018-05-12T15:48:16.244Z,99.00
2018-05-12T15:50:44.397Z,99.60
2018-05-12T15:53:12.571Z,99.40
2018-05-12T15:55:41.500Z,99.20
2018-05-12T15:58:09.683Z,99.20
2018-05-12T16:00:37.847Z,99.20
2018-05-12T16:03:06.044Z,99.20
2018-05-12T16:05:34.199Z,99.50
2018-05-12T16:08:02.381Z,98.90
2018-05-12T16:10:30.535Z,99.10
2018-05-12T16:12:58.712Z,99.20
2018-05-12T16:15:26.864Z,98.40
2018-05-12T16:17:55.049Z,98.60
2018-05-12T16:20:23.222Z,98.90
2018-05-12T16:22:51.428Z,99.10
2018-05-12T16:25:19.580Z,98.60
2018-05-12T16:27:47.752Z,98.40
2018-05-12T16:30:15.911Z,98.90
2018-05-12T16:32:44.092Z,99.50
2018-05-12T16:35:12.250Z,99.40
2018-05-12T16:37:40.427Z,99.40
2018-05-12T16:40:08.585Z,99.80
2018-05-12T16:42:36.764Z,99.90
2018-05-12T16:45:05.687Z,99.20
2018-05-12T16:47:35.321Z,99.20
2018-05-12T16:50:03.508Z,99.80
2018-05-12T16:52:31.673Z,99.90
2018-05-12T16:54:59.870Z,99.90
2018-05-12T16:57:28.031Z,99.90
2018-05-12T16:59:56.686Z,99.90
2018-05-12T17:02:24.843Z,99.90
2018-05-12T17:04:53.027Z,99.90
2018-05-12T17:07:21.186Z,99.90
2018-05-12T17:09:49.375Z,99.90
2018-05-12T17:12:17.575Z,99.90
2018-05-12T17:14:45.784Z,99.90
2018-05-12T17:17:14.708Z,99.90
2018-05-12T17:19:42.889Z,99.90
2018-05-12T17:22:11.043Z,99.90
2018-05-12T17:24:39.233Z,99.90
2018-05-12T17:27:07.392Z,99.90
2018-05-12T17:29:35.586Z,99.90
2018-05-12T17:32:03.744Z,99.90
2018-05-12T17:34:31.929Z,99.90
2018-05-12T17:37:01.915Z,99.90
2018-05-12T17:39:30.723Z,99.90
2018-05-12T17:41:58.879Z,99.90
2018-05-12T17:44:27.833Z,99.90
2018-05-12T17:46:56.001Z,99.90
2018-05-12T17:49:24.196Z,99.90
2018-05-12T17:51:53.022Z,99.90
2018-05-12T17:54:22.117Z,99.90
2018-05-12T17:56:51.481Z,99.90
2018-05-12T17:59:21.698Z,99.90
2018-05-12T18:01:50.288Z,99.90
2018-05-12T18:04:18.522Z,99.90
2018-05-12T18:06:46.731Z,99.90
2018-05-12T18:09:14.927Z,99.90
2018-05-12T18:11:45.237Z,99.90
2018-05-12T18:14:13.420Z,99.90
2018-05-12T18:16:41.586Z,99.90
2018-05-12T18:19:09.772Z,99.90
2018-05-12T18:21:40.113Z,99.90
2018-05-12T18:24:08.325Z,99.90
2018-05-12T18:26:36.490Z,99.90
2018-05-12T18:29:04.697Z,99.90
2018-05-12T18:31:34.680Z,99.90
2018-05-12T18:34:02.860Z,99.90
2018-05-12T18:36:31.008Z,99.90
2018-05-12T18:38:59.184Z,99.90
2018-05-12T18:41:27.344Z,99.90
2018-05-12T18:43:56.529Z,99.90
2018-05-12T18:46:25.568Z,99.90
2018-05-12T18:48:53.748Z,99.90
2018-05-12T18:51:21.902Z,99.90
2018-05-12T18:53:50.072Z,99.90
2018-05-12T18:56:18.220Z,99.90
2018-05-12T18:58:47.160Z,99.90
2018-05-12T19:01:15.332Z,99.90
2018-05-12T19:03:44.336Z,99.90
2018-05-12T19:06:12.553Z,99.90
2018-05-12T19:08:40.710Z,99.90
2018-05-12T19:11:08.890Z,99.90
2018-05-12T19:13:37.040Z,99.90
2018-05-12T19:16:05.991Z,99.90
2018-05-12T19:18:34.141Z,99.90
2018-05-12T19:21:02.370Z,99.90
2018-05-12T19:23:30.520Z,99.90
2018-05-12T19:25:58.698Z,99.90
2018-05-12T19:28:26.847Z,99.90
2018-05-12T19:30:55.796Z,99.90
2018-05-12T19:33:23.943Z,99.90
2018-05-12T19:35:53.333Z,99.90
2018-05-12T19:38:22.584Z,99.90
2018-05-12T19:40:50.826Z,99.90
2018-05-12T19:43:18.976Z,99.90
2018-05-12T19:45:48.004Z,99.90
2018-05-12T19:48:16.153Z,99.90
2018-05-12T19:50:44.325Z,99.90
2018-05-12T19:53:12.487Z,99.90
2018-05-12T19:55:40.670Z,99.90
2018-05-12T19:58:08.825Z,99.90
2018-05-12T20:00:36.999Z,99.90
2018-05-12T20:03:05.920Z,99.90
2018-05-12T20:05:34.107Z,99.90
2018-05-12T20:08:03.236Z,99.90
2018-05-12T20:10:31.649Z,99.90
2018-05-12T20:13:00.696Z,99.90
2018-05-12T20:15:28.880Z,99.90
2018-05-12T20:17:57.955Z,99.90
2018-05-12T20:20:26.727Z,99.90
2018-05-12T20:22:55.739Z,99.90
2018-05-12T20:25:23.917Z,99.90
2018-05-12T20:27:52.983Z,99.90
2018-05-12T20:30:24.262Z,99.90
2018-05-12T20:32:52.816Z,99.90
2018-05-12T20:35:21.068Z,99.90
2018-05-12T20:37:50.088Z,99.90
2018-05-12T20:40:19.113Z,99.90
2018-05-12T20:42:47.268Z,99.90
2018-05-12T20:45:15.837Z,99.90
2018-05-12T20:47:45.553Z,99.90
2018-05-12T20:50:17.004Z,99.90
2018-05-12T20:52:46.317Z,99.90
2018-05-12T20:55:17.826Z,99.90
2018-05-12T20:57:45.985Z,99.90
2018-05-12T21:00:14.933Z,99.90
2018-05-12T21:02:44.761Z,99.90
2018-05-12T21:05:14.103Z,99.90
2018-05-12T21:07:42.257Z,99.90
2018-05-12T21:10:10.442Z,99.90
2018-05-12T21:12:39.262Z,99.90
2018-05-12T21:15:08.396Z,99.90
2018-05-12T21:17:36.544Z,99.90
2018-05-12T21:20:04.725Z,99.90
2018-05-12T21:22:32.880Z,99.90
2018-05-12T21:25:01.058Z,99.90
2018-05-12T21:27:29.280Z,99.90
2018-05-12T21:29:58.120Z,99.90
2018-05-12T21:32:26.277Z,99.90
2018-05-12T21:34:54.450Z,99.90
2018-05-12T21:37:22.830Z,99.90
2018-05-12T21:39:50.985Z,99.90
2018-05-12T21:42:19.166Z,99.90
2018-05-12T21:44:47.783Z,99.90
2018-05-12T21:47:15.956Z,99.90
2018-05-12T21:49:44.116Z,99.90
2018-05-12T21:52:12.993Z,99.90
2018-05-12T21:54:41.141Z,99.90
2018-05-12T21:57:10.517Z,99.90
2018-05-12T21:59:38.668Z,99.90
2018-05-12T22:02:06.844Z,99.90
2018-05-12T22:04:34.992Z,99.90
2018-05-12T22:07:03.173Z,99.90
2018-05-12T22:09:31.353Z,99.90
2018-05-12T22:11:59.526Z,99.90
2018-05-12T22:14:27.677Z,99.90
2018-05-12T22:16:55.858Z,99.90
2018-05-12T22:19:24.008Z,99.90
2018-05-12T22:21:52.640Z,99.90
2018-05-12T22:24:20.796Z,99.90
2018-05-12T22:26:48.973Z,99.90
2018-05-12T22:29:17.119Z,99.90
2018-05-12T22:31:45.292Z,99.90
2018-05-12T22:34:13.451Z,99.90
2018-05-12T22:36:41.624Z,99.90
2018-05-12T22:39:09.776Z,99.90
2018-05-12T22:41:39.048Z,99.90
2018-05-12T22:44:07.192Z,99.90
2018-05-12T22:46:36.127Z,99.90
2018-05-12T22:49:04.909Z,99.90
2018-05-12T22:51:33.093Z,99.90
2018-05-12T22:54:01.245Z,99.90
2018-05-12T22:56:29.742Z,99.90
2018-05-12T22:58:57.892Z,99.90
2018-05-12T23:01:26.072Z,99.90
2018-05-12T23:03:54.435Z,99.90
2018-05-12T23:06:22.628Z,99.90
2018-05-12T23:08:50.790Z,99.90
2018-05-12T23:11:18.970Z,99.90
2018-05-12T23:13:47.965Z,99.90
2018-05-12T23:16:16.149Z,99.90
2018-05-12T23:18:44.296Z,99.90
2018-05-12T23:21:13.238Z,99.90
2018-05-12T23:23:41.390Z,99.90
2018-05-12T23:26:09.577Z,99.90
2018-05-12T23:28:37.748Z,99.90
2018-05-12T23:31:05.929Z,99.90
2018-05-12T23:33:34.089Z,99.90
2018-05-12T23:36:02.264Z,99.90
2018-05-12T23:38:30.420Z,99.90
2018-05-12T23:40:58.568Z,99.90
2018-05-12T23:43:26.741Z,99.90
2018-05-12T23:45:54.889Z,99.90
2018-05-12T23:48:23.078Z,99.90
2018-05-12T23:50:51.228Z,99.90
2018-05-12T23:53:19.406Z,99.90
2018-05-12T23:55:47.564Z,99.90
2018-05-12T23:58:15.746Z,99.90
